Flight Track Log - Related Links

Times and Time Zones

All times are in EDT time to prevent confusion due to time zone crossing. See the AIP5006 flight status page for this flight to view local times or setup timezone preferences in your user account.

Time Position Orientation Groundspeed Altitude Reporting Facility
EDT Latitude Longitude Course Direction KTS MPH feet Rate Location/Type
Tue 05:08:42 AM 45.8172 -108.5858 270° West 125 144 4,900  Level Salt Lake Center
Tue 05:09:42 AM 45.8175 -108.6397 270° West 134 154 5,800 950 Climbing Salt Lake Center
Tue 05:10:42 AM 45.8192 -108.6975 272° West 143 165 6,800 950 Climbing Salt Lake Center
Tue 05:11:42 AM 45.8250 -108.7581 278° West 156 180 7,700 893 Climbing Salt Lake Center
Tue 05:12:43 AM 45.8292 -108.8183 276° West 154 177 8,600 942 Climbing Salt Lake Center
Tue 05:13:43 AM 45.8339 -108.8844 276° West 155 178 9,600 900 Climbing Salt Lake Center
Tue 05:14:43 AM 45.8311 -108.9472 266° West 160 184 10,400 800 Climbing Salt Lake Center
Tue 05:15:43 AM 45.8328 -109.0072 272° West 155 178 11,200 850 Climbing Salt Lake Center
Tue 05:16:43 AM 45.8328 -109.0703 270° West 159 183 12,100 850 Climbing Salt Lake Center
Tue 05:17:43 AM 45.8336 -109.1317 271° West 157 181 12,900 744 Climbing Salt Lake Center
Tue 05:18:44 AM 45.8333 -109.1944 270° West 159 183 13,600 545 Climbing Salt Lake Center
Tue 05:19:44 AM 45.8328 -109.2600 269° West 165 190 14,000 200 Climbing Salt Lake Center
Tue 05:20:44 AM 45.8344 -109.3406 272° West 189 217 14,000 50 Level Salt Lake Center
Tue 05:21:44 AM 45.8364 -109.4214 272° West 203 234 14,100 50 Climbing Salt Lake Center
Tue 05:22:44 AM 45.8375 -109.5039 271° West 209 241 14,100 -50 Level Salt Lake Center
Tue 05:23:44 AM 45.8408 -109.5875 273° West 213 245 14,000 -50 Descending Salt Lake Center
Tue 05:24:44 AM 45.8436 -109.6719 273° West 214 246 14,000  Level Salt Lake Center
Tue 05:25:45 AM 45.8350 -109.7586 262° West 223 257 14,000  Level Salt Lake Center
Tue 05:26:45 AM 45.8322 -109.8514 268° West 226 260 14,000 -50 Level Salt Lake Center
Tue 05:27:45 AM 45.8294 -109.9392 267° West 223 257 13,900  Descending Salt Lake Center
Tue 05:28:45 AM 45.8375 -110.0267 278° West 221 254 14,000  Climbing Salt Lake Center
Tue 05:29:45 AM 45.8467 -110.1114 279° West 218 251 13,900  Descending Salt Lake Center
Tue 05:30:45 AM 45.8500 -110.2000 273° West 221 254 14,000 99 Climbing Salt Lake Center
Tue 05:31:46 AM 45.8494 -110.2867 270° West 220 253 14,100 50 Climbing Salt Lake Center
Tue 05:32:46 AM 45.8544 -110.3728 275° West 218 251 14,100  Level Salt Lake Center
Tue 05:33:46 AM 45.8564 -110.4597 272° West 218 251 14,100  Level Salt Lake Center
Tue 05:34:46 AM 45.8564 -110.5453 270° West 217 250 14,100 -50 Level Salt Lake Center
Tue 05:35:46 AM 45.8586 -110.6328 272° West 218 251 14,000  Descending Salt Lake Center
Tue 05:36:46 AM 45.8575 -110.7208 269° West 219 252 14,100  Climbing Salt Lake Center
Tue 05:37:47 AM 45.8581 -110.8075 271° West 219 252 14,000  Descending Salt Lake Center
Tue 05:38:47 AM 45.8581 -110.8942 270° West 219 252 14,100  Climbing Salt Lake Center
Tue 05:39:47 AM 45.8600 -110.9814 272° West 219 252 14,000 -50 Descending Salt Lake Center
Tue 05:40:47 AM 45.8622 -111.0692 272° West 220 253 14,000  Level Salt Lake Center
Tue 05:41:47 AM 45.8594 -111.1636 268° West 221 254 14,000  Level Salt Lake Center
Tue 05:42:47 AM 45.8619 -111.2483 272° West 222 255 14,000  Level Salt Lake Center
Tue 05:43:48 AM 45.8642 -111.3339 272° West 224 258 14,000  Level Salt Lake Center
Tue 05:44:48 AM 45.8628 -111.4189 269° West 220 253 14,000 50 Level Salt Lake Center
Tue 05:45:48 AM 45.8622 -111.5144 270° West 219 252 14,100  Climbing Salt Lake Center
Tue 05:46:48 AM 45.8631 -111.5875 271° West 220 253 14,000 -300 Descending Salt Lake Center
Tue 05:47:48 AM 45.8622 -111.6861 269° West 222 255 13,500 -600 Descending Salt Lake Center
Tue 05:48:48 AM 45.8614 -111.7911 269° West 228 262 12,800 -700 Descending Salt Lake Center
Tue 05:49:48 AM 45.8619 -111.8839 271° West 235 270 12,100 -496 Descending Salt Lake Center
Tue 05:50:49 AM 45.8622 -111.9750 270° West 238 274 11,800 -446 Descending Salt Lake Center
Tue 05:51:49 AM 45.8636 -112.0642 271° West 237 273 11,200 -400 Descending Salt Lake Center
Tue 05:52:49 AM 45.8631 -112.1539 270° West 235 270 11,000 -200 Descending Salt Lake Center
Tue 05:54:00 AM 45.8748 -112.2411 296° West  Level FlightAware Approximate
Tue 06:01:00 AM 45.9500 -112.4833 North  Level FlightAware Approximate
Tue 06:02:00 AM 45.9548 -112.4975 North  Level Estimated
Tue 06:03:00 AM 45.9548 -112.4975 North  Level Estimated

Login

Don't have an account? Register now (free) for customized features, flight alerts, and more!